Time;durP1;ratioP1;P1;durP2;ratioP2;P2;SDS_P1;SDS_P2;PMS_P1;PMS_P2;Temp;Humidity;BMP_temperature;BMP_pressure;BME280_temperature;BME280_humidity;BME280_pressure;Samples;Min_cycle;Max_cycle;Signal;HPM_P1;HPM_P2
2023/08/17 00:00:13;;;;;;;5.30;2.28;;;15.60;73.40;;;;;;5113564;28;20040;-67
2023/08/17 00:02:39;;;;;;;4.45;2.55;;;15.60;73.80;;;;;;5112288;28;20047;-64
2023/08/17 00:05:06;;;;;;;4.32;2.20;;;15.60;77.80;;;;;;5113443;28;20153;-64
2023/08/17 00:07:32;;;;;;;7.90;2.28;;;15.60;77.00;;;;;;5111565;28;20052;-64
2023/08/17 00:09:58;;;;;;;3.78;2.20;;;15.60;75.80;;;;;;5113385;28;20039;-64
2023/08/17 00:12:23;;;;;;;5.35;2.33;;;15.60;77.70;;;;;;5112132;28;20440;-64
2023/08/17 00:14:50;;;;;;;6.13;2.65;;;15.60;77.50;;;;;;5113447;28;20475;-64
2023/08/17 00:17:16;;;;;;;10.75;2.53;;;16.20;79.50;;;;;;5113304;28;20395;-64
2023/08/17 00:19:41;;;;;;;4.07;2.40;;;15.60;78.40;;;;;;5113371;28;20032;-64
2023/08/17 00:22:07;;;;;;;3.38;2.10;;;15.70;77.40;;;;;;5113303;28;20032;-64
2023/08/17 00:24:33;;;;;;;4.55;2.08;;;15.70;77.40;;;;;;5111944;28;20035;-64
2023/08/17 00:26:58;;;;;;;3.42;1.83;;;15.70;79.20;;;;;;5113004;28;20475;-64
2023/08/17 00:29:24;;;;;;;8.98;2.50;;;16.10;77.90;;;;;;5113186;28;20065;-64
2023/08/17 00:31:49;;;;;;;3.38;1.83;;;15.80;78.60;;;;;;5113284;28;20070;-64
2023/08/17 00:34:15;;;;;;;5.90;2.38;;;15.70;79.80;;;;;;5113020;28;20521;-64
2023/08/17 00:36:41;;;;;;;4.15;2.15;;;15.70;79.10;;;;;;5113124;28;20475;-64
2023/08/17 00:39:06;;;;;;;5.03;1.88;;;15.70;78.50;;;;;;5113260;28;20036;-65
2023/08/17 00:41:32;;;;;;;3.28;1.90;;;15.70;80.00;;;;;;5111789;28;20501;-66
2023/08/17 00:44:00;;;;;;;4.63;1.80;;;15.70;78.80;;;;;;5113062;28;20039;-68
2023/08/17 00:46:26;;;;;;;6.15;2.17;;;15.70;78.20;;;;;;5112218;28;20118;-67
2023/08/17 00:48:54;;;;;;;5.97;2.17;;;15.70;77.00;;;;;;5117007;28;20047;-65
2023/08/17 00:51:24;;;;;;;5.95;2.05;;;15.70;78.40;;;;;;5116588;28;20055;-65
2023/08/17 00:53:55;;;;;;;4.30;1.92;;;15.70;78.70;;;;;;5116545;28;20042;-65
2023/08/17 00:56:21;;;;;;;2.40;1.80;;;15.70;80.30;;;;;;5116748;28;20077;-65
2023/08/17 00:58:48;;;;;;;6.15;2.35;;;15.60;80.50;;;;;;5116941;28;20488;-64
2023/08/17 01:01:14;;;;;;;6.43;1.98;;;15.60;81.80;;;;;;5115145;28;20039;-64
2023/08/17 01:03:41;;;;;;;3.40;1.90;;;15.60;81.40;;;;;;5115193;28;20097;-64
2023/08/17 01:06:07;;;;;;;5.28;1.85;;;15.60;80.80;;;;;;5115126;28;20052;-64
2023/08/17 01:08:33;;;;;;;5.57;1.83;;;15.60;81.20;;;;;;5116554;28;20452;-64
2023/08/17 01:11:20;;;;;;;5.93;2.45;;;15.60;81.80;;;;;;5116380;28;20065;-64
2023/08/17 01:13:53;;;;;;;5.15;2.13;;;15.60;85.30;;;;;;5116543;28;20039;-65
2023/08/17 01:16:27;;;;;;;4.00;1.95;;;15.60;83.20;;;;;;5116449;28;20430;-64
2023/08/17 01:18:54;;;;;;;3.65;2.00;;;15.80;84.20;;;;;;5114746;28;20039;-64
2023/08/17 01:21:23;;;;;;;4.68;2.40;;;15.50;83.00;;;;;;5115103;28;20122;-64
2023/08/17 01:23:50;;;;;;;4.45;2.33;;;15.50;84.80;;;;;;5116345;28;20039;-64
2023/08/17 01:26:15;;;;;;;4.95;1.90;;;15.50;86.90;;;;;;5116252;28;20122;-64
2023/08/17 01:28:44;;;;;;;5.72;2.05;;;17.40;88.40;;;;;;5114838;28;20123;-64
2023/08/17 01:31:19;;;;;;;5.75;2.60;;;15.60;91.60;;;;;;5116191;28;20071;-64
2023/08/17 01:33:52;;;;;;;2.72;1.55;;;15.40;90.30;;;;;;5116159;28;20085;-64
2023/08/17 01:36:31;;;;;;;6.20;1.70;;;15.50;89.60;;;;;;5114457;28;20051;-64
2023/08/17 01:39:00;;;;;;;6.40;2.35;;;15.40;90.60;;;;;;5115998;28;20182;-64
2023/08/17 01:41:26;;;;;;;6.32;2.05;;;15.40;90.00;;;;;;5114502;28;20463;-64
2023/08/17 01:43:53;;;;;;;6.45;2.13;;;15.40;88.70;;;;;;5115894;28;20039;-64
2023/08/17 01:46:19;;;;;;;3.92;2.17;;;15.30;89.20;;;;;;5114545;28;20044;-64
2023/08/17 01:48:46;;;;;;;6.32;2.35;;;15.30;90.30;;;;;;5115542;28;20403;-64
2023/08/17 01:51:16;;;;;;;6.65;2.50;;;15.30;91.50;;;;;;5115783;28;20035;-64
2023/08/17 01:53:42;;;;;;;7.28;2.28;;;15.30;91.60;;;;;;5115776;28;20067;-64
2023/08/17 01:56:07;;;;;;;6.00;2.67;;;15.30;91.60;;;;;;5115680;28;20070;-65
2023/08/17 01:58:33;;;;;;;3.88;2.08;;;15.20;92.00;;;;;;5115478;28;20096;-64
2023/08/17 02:00:58;;;;;;;4.50;2.10;;;15.20;91.20;;;;;;5115315;28;20036;-64
2023/08/17 02:03:24;;;;;;;4.85;2.10;;;15.40;91.80;;;;;;5115521;28;20039;-64
2023/08/17 02:05:49;;;;;;;6.18;2.22;;;15.20;91.50;;;;;;5115283;28;20051;-64
2023/08/17 02:08:16;;;;;;;3.42;1.98;;;15.20;91.50;;;;;;5115436;28;20130;-65
2023/08/17 02:10:42;;;;;;;5.47;2.35;;;15.30;91.70;;;;;;5115432;28;20427;-65
2023/08/17 02:13:08;;;;;;;5.55;2.20;;;15.20;93.20;;;;;;5115379;28;20042;-65
2023/08/17 02:15:39;;;;;;;6.55;2.72;;;15.20;92.30;;;;;;5115307;28;20095;-66
2023/08/17 02:18:04;;;;;;;7.22;2.28;;;15.20;91.50;;;;;;5115250;28;20043;-65
2023/08/17 02:20:30;;;;;;;5.05;2.17;;;15.20;91.60;;;;;;5115224;28;20126;-66
2023/08/17 02:22:56;;;;;;;4.30;2.30;;;15.30;92.00;;;;;;5114846;28;20036;-66
2023/08/17 02:25:21;;;;;;;5.82;2.55;;;15.20;91.50;;;;;;5115037;28;20036;-66
2023/08/17 02:27:47;;;;;;;6.43;2.15;;;15.30;91.30;;;;;;5115033;28;20479;-66
2023/08/17 02:30:13;;;;;;;2.88;2.38;;;15.30;91.00;;;;;;5115027;28;20038;-65
2023/08/17 02:32:38;;;;;;;3.95;2.20;;;15.30;91.60;;;;;;5113327;28;20043;-66
2023/08/17 02:35:05;;;;;;;5.95;2.55;;;15.30;91.50;;;;;;5113372;28;20068;-66
2023/08/17 02:37:30;;;;;;;4.13;2.35;;;15.30;91.90;;;;;;5113334;28;20043;-66
2023/08/17 02:39:56;;;;;;;7.15;2.45;;;15.30;92.00;;;;;;5113263;28;20546;-66
2023/08/17 02:42:22;;;;;;;5.50;2.33;;;15.30;92.00;;;;;;5114720;28;20039;-65
2023/08/17 02:44:47;;;;;;;5.28;2.40;;;15.30;91.50;;;;;;5114709;28;20081;-65
2023/08/17 02:47:13;;;;;;;7.30;2.20;;;15.30;91.40;;;;;;5114667;28;20554;-65
2023/08/17 02:49:39;;;;;;;7.68;2.85;;;15.70;91.30;;;;;;5114503;28;20104;-66
2023/08/17 02:52:05;;;;;;;3.25;2.15;;;15.30;91.10;;;;;;5114500;28;20096;-65
2023/08/17 02:54:31;;;;;;;4.00;2.15;;;15.30;90.90;;;;;;5114557;28;20110;-66
2023/08/17 02:56:57;;;;;;;4.63;2.20;;;15.20;90.80;;;;;;5114361;28;20031;-65
2023/08/17 02:59:22;;;;;;;2.95;2.22;;;15.20;91.20;;;;;;5114502;28;20123;-65
2023/08/17 03:01:48;;;;;;;4.40;2.22;;;15.10;93.50;;;;;;5113065;28;20559;-66
2023/08/17 03:04:14;;;;;;;3.85;2.50;;;15.10;93.10;;;;;;5114373;28;20035;-65
2023/08/17 03:06:40;;;;;;;4.93;2.60;;;15.10;92.70;;;;;;5112645;28;20531;-65
2023/08/17 03:09:05;;;;;;;3.20;2.28;;;15.30;92.90;;;;;;5113494;28;20043;-65
2023/08/17 03:11:31;;;;;;;4.90;2.63;;;15.10;93.20;;;;;;5113951;28;20043;-65
2023/08/17 03:14:00;;;;;;;6.85;2.63;;;15.00;94.00;;;;;;5113856;28;20035;-66
2023/08/17 03:16:30;;;;;;;6.80;2.90;;;15.00;94.30;;;;;;5112646;28;20115;-65
2023/08/17 03:18:55;;;;;;;3.95;2.65;;;15.00;94.90;;;;;;5113907;28;20075;-64
2023/08/17 03:21:21;;;;;;;4.32;2.88;;;14.90;95.60;;;;;;5114094;28;20071;-64
2023/08/17 03:23:48;;;;;;;4.38;2.70;;;15.00;96.30;;;;;;5114017;28;20058;-64
2023/08/17 03:26:13;;;;;;;8.68;2.90;;;14.90;96.30;;;;;;5113690;28;20071;-64
2023/08/17 03:28:39;;;;;;;5.88;2.55;;;15.00;96.90;;;;;;5113886;28;20074;-64
2023/08/17 03:31:06;;;;;;;5.10;2.90;;;15.00;96.60;;;;;;5113866;28;20445;-64
2023/08/17 03:33:32;;;;;;;6.32;3.03;;;15.00;96.90;;;;;;5113911;28;20036;-64
2023/08/17 03:35:57;;;;;;;6.38;3.17;;;15.00;96.40;;;;;;5113840;28;20440;-64
2023/08/17 03:38:23;;;;;;;10.75;3.50;;;15.10;96.70;;;;;;5113792;28;20077;-64
2023/08/17 03:40:49;;;;;;;4.38;3.08;;;15.10;96.20;;;;;;5113828;28;20035;-64
2023/08/17 03:43:14;;;;;;;5.43;3.00;;;15.10;97.00;;;;;;5113657;28;20035;-64
2023/08/17 03:45:43;;;;;;;4.32;2.50;;;15.10;96.60;;;;;;5113695;28;20050;-64
2023/08/17 03:48:09;;;;;;;5.28;2.83;;;15.10;97.60;;;;;;5113571;28;20036;-64
2023/08/17 03:50:35;;;;;;;5.97;2.97;;;15.10;96.40;;;;;;5112349;28;20027;-64
2023/08/17 03:53:00;;;;;;;5.80;2.72;;;15.10;97.00;;;;;;5113550;28;20085;-64
2023/08/17 03:55:26;;;;;;;4.05;2.70;;;15.10;96.60;;;;;;5113702;28;20546;-64
2023/08/17 03:57:52;;;;;;;3.60;2.58;;;15.50;98.70;;;;;;5113572;28;20032;-64
2023/08/17 04:00:18;;;;;;;5.30;2.97;;;15.50;97.50;;;;;;5113516;28;20540;-64
2023/08/17 04:02:44;;;;;;;5.28;2.83;;;15.10;97.80;;;;;;5113563;28;20050;-64
2023/08/17 04:05:09;;;;;;;6.93;3.28;;;16.00;98.10;;;;;;5113191;28;20035;-64
2023/08/17 04:07:35;;;;;;;7.15;2.80;;;15.20;98.10;;;;;;5111750;28;20050;-64
2023/08/17 04:10:01;;;;;;;4.80;2.80;;;15.20;97.90;;;;;;5113534;28;20040;-64
2023/08/17 04:12:26;;;;;;;7.57;2.70;;;15.20;98.90;;;;;;5113457;28;20092;-64
2023/08/17 04:14:52;;;;;;;6.32;2.85;;;15.50;98.00;;;;;;5111992;28;20032;-64
2023/08/17 04:17:18;;;;;;;4.80;2.83;;;15.20;97.60;;;;;;5113476;28;20092;-64
2023/08/17 04:19:43;;;;;;;4.93;2.50;;;15.30;97.40;;;;;;5113141;28;20088;-64
2023/08/17 04:22:09;;;;;;;4.28;2.50;;;15.30;96.30;;;;;;5115027;28;20035;-64
2023/08/17 04:24:35;;;;;;;8.07;2.90;;;15.30;96.50;;;;;;5117492;28;20499;-64
2023/08/17 04:27:01;;;;;;;4.60;2.95;;;15.30;96.00;;;;;;5117167;28;20034;-64
2023/08/17 04:29:26;;;;;;;9.07;3.25;;;15.30;96.30;;;;;;5116999;28;20490;-65
2023/08/17 04:31:52;;;;;;;7.13;3.20;;;15.40;96.30;;;;;;5117395;28;20039;-64
2023/08/17 04:34:17;;;;;;;4.88;3.38;;;15.40;96.30;;;;;;5117273;28;20041;-64
2023/08/17 04:36:43;;;;;;;4.88;2.85;;;15.80;97.10;;;;;;5117104;28;20101;-64
2023/08/17 04:39:09;;;;;;;6.03;3.05;;;15.40;97.30;;;;;;5117201;28;20360;-64
2023/08/17 04:41:35;;;;;;;6.15;2.72;;;15.40;97.80;;;;;;5117201;28;20462;-65
2023/08/17 04:44:00;;;;;;;5.15;2.75;;;15.30;98.40;;;;;;5115613;28;20084;-65
2023/08/17 04:46:26;;;;;;;5.53;2.92;;;15.40;97.90;;;;;;5117059;28;20126;-66
2023/08/17 04:48:52;;;;;;;7.97;3.47;;;15.80;98.20;;;;;;5116489;28;20104;-66
2023/08/17 04:51:18;;;;;;;7.00;3.08;;;15.50;99.00;;;;;;5116989;28;20044;-66
2023/08/17 04:53:43;;;;;;;4.70;2.97;;;16.20;99.10;;;;;;5115498;28;20506;-65
2023/08/17 04:56:09;;;;;;;5.65;3.15;;;15.50;99.80;;;;;;5116935;28;20563;-65
2023/08/17 04:58:34;;;;;;;8.38;3.53;;;15.50;99.90;;;;;;5115155;28;20032;-65
2023/08/17 05:01:00;;;;;;;9.18;3.13;;;15.60;99.30;;;;;;5116736;28;20164;-65
2023/08/17 05:03:26;;;;;;;5.13;3.25;;;15.60;99.40;;;;;;5116773;28;20031;-65
2023/08/17 05:05:54;;;;;;;7.35;3.75;;;15.70;98.10;;;;;;5116489;28;20043;-65
2023/08/17 05:08:22;;;;;;;8.85;3.40;;;15.70;98.10;;;;;;5116520;28;20112;-65
2023/08/17 05:10:48;;;;;;;6.85;3.20;;;15.70;99.00;;;;;;5116610;28;20028;-66
2023/08/17 05:13:13;;;;;;;8.57;3.28;;;15.70;97.50;;;;;;5116556;28;20046;-66
2023/08/17 05:15:39;;;;;;;9.95;4.00;;;15.80;97.20;;;;;;5116584;28;20031;-65
2023/08/17 05:18:05;;;;;;;6.38;3.45;;;15.80;96.80;;;;;;5116450;28;20474;-65
2023/08/17 05:20:30;;;;;;;6.63;2.80;;;16.10;97.10;;;;;;5116227;28;20051;-65
2023/08/17 05:22:56;;;;;;;6.35;3.20;;;15.80;97.10;;;;;;5116377;28;20463;-65
2023/08/17 05:25:22;;;;;;;5.32;3.58;;;15.80;97.00;;;;;;5116332;28;20034;-66
2023/08/17 05:27:49;;;;;;;7.90;3.40;;;15.90;96.70;;;;;;5115917;28;20039;-65
2023/08/17 05:30:15;;;;;;;5.63;2.75;;;15.80;96.20;;;;;;5114738;28;20035;-66
2023/08/17 05:32:41;;;;;;;4.97;3.28;;;15.90;95.60;;;;;;5115579;28;20031;-66
2023/08/17 05:35:07;;;;;;;5.97;2.97;;;16.00;95.10;;;;;;5115801;28;20110;-66
2023/08/17 05:37:32;;;;;;;4.80;2.33;;;16.00;94.20;;;;;;5116056;28;20071;-66
2023/08/17 05:39:58;;;;;;;6.18;2.72;;;16.00;94.20;;;;;;5115970;28;20040;-65
2023/08/17 05:42:24;;;;;;;4.57;2.65;;;16.10;93.70;;;;;;5115660;28;20475;-65
2023/08/17 05:44:49;;;;;;;6.93;2.40;;;16.10;94.10;;;;;;5115929;28;20083;-66
2023/08/17 05:47:17;;;;;;;5.32;2.40;;;16.10;93.30;;;;;;5115854;28;20509;-66
2023/08/17 05:49:43;;;;;;;7.90;2.40;;;16.60;93.70;;;;;;5115832;28;20402;-66
2023/08/17 05:52:09;;;;;;;5.65;2.47;;;16.10;93.10;;;;;;5115856;28;20036;-64
2023/08/17 05:54:34;;;;;;;4.90;2.42;;;16.10;93.30;;;;;;5115780;28;20038;-64
2023/08/17 05:57:00;;;;;;;4.68;2.35;;;16.20;92.80;;;;;;5115680;28;20069;-64
2023/08/17 05:59:25;;;;;;;4.93;2.38;;;16.20;94.80;;;;;;5115298;28;20032;-65
2023/08/17 06:01:51;;;;;;;9.57;2.60;;;16.20;94.30;;;;;;5115672;28;20031;-65
2023/08/17 06:04:17;;;;;;;6.45;2.20;;;16.20;92.80;;;;;;5114132;28;20067;-64
2023/08/17 06:06:42;;;;;;;5.70;2.15;;;16.20;92.10;;;;;;5115101;28;20352;-65
2023/08/17 06:09:08;;;;;;;5.20;2.30;;;16.20;92.20;;;;;;5115386;28;20059;-64
2023/08/17 06:11:34;;;;;;;5.78;2.30;;;16.20;92.10;;;;;;5115155;28;20031;-65
2023/08/17 06:13:59;;;;;;;5.78;2.60;;;16.20;91.70;;;;;;5115342;28;20043;-64
2023/08/17 06:16:25;;;;;;;5.78;2.33;;;16.30;91.40;;;;;;5115311;28;20032;-64
2023/08/17 06:18:51;;;;;;;4.53;1.92;;;16.30;91.40;;;;;;5115281;28;20055;-65
2023/08/17 06:21:16;;;;;;;7.03;2.92;;;16.50;91.00;;;;;;5113541;28;20046;-64
2023/08/17 06:23:42;;;;;;;6.97;2.50;;;16.40;91.00;;;;;;5115145;28;20059;-64
2023/08/17 06:26:07;;;;;;;4.90;1.80;;;16.40;89.50;;;;;;5113780;28;20437;-64
2023/08/17 06:28:33;;;;;;;6.47;2.42;;;16.40;89.90;;;;;;5114997;28;20173;-67
2023/08/17 06:30:59;;;;;;;7.30;2.00;;;16.40;88.50;;;;;;5113341;28;20079;-65
2023/08/17 06:33:25;;;;;;;4.72;2.40;;;16.50;88.00;;;;;;5115014;28;20462;-66
2023/08/17 06:35:51;;;;;;;5.07;1.95;;;16.50;87.50;;;;;;5114915;28;20039;-66
2023/08/17 06:38:16;;;;;;;6.05;1.80;;;16.60;86.00;;;;;;5114867;28;20498;-66
2023/08/17 06:40:42;;;;;;;5.50;1.90;;;16.60;83.20;;;;;;5114849;28;20493;-66
2023/08/17 06:43:09;;;;;;;5.93;1.88;;;16.60;83.30;;;;;;5114761;28;20119;-66
2023/08/17 06:45:35;;;;;;;3.85;2.08;;;16.70;83.50;;;;;;5112203;28;20053;-66
2023/08/17 06:48:00;;;;;;;3.10;1.45;;;16.70;80.40;;;;;;5114552;28;20097;-66
2023/08/17 06:50:28;;;;;;;3.50;1.58;;;16.90;77.30;;;;;;5114724;28;20433;-67
2023/08/17 06:52:54;;;;;;;6.70;1.50;;;16.90;75.30;;;;;;5114594;28;20457;-66
2023/08/17 06:55:19;;;;;;;3.50;1.40;;;17.00;70.00;;;;;;5114299;28;20074;-66
2023/08/17 06:57:45;;;;;;;2.90;1.45;;;17.00;67.60;;;;;;5114517;28;20114;-68
2023/08/17 07:00:11;;;;;;;4.10;1.40;;;17.20;55.90;;;;;;5114446;28;20111;-68
2023/08/17 07:02:37;;;;;;;3.58;1.25;;;17.10;41.30;;;;;;5112893;28;20068;-67
2023/08/17 07:05:03;;;;;;;3.85;1.45;;;17.10;32.00;;;;;;5114381;28;20043;-66
2023/08/17 07:07:31;;;;;;;3.50;1.20;;;17.10;27.50;;;;;;5113925;28;20062;-66
2023/08/17 07:09:57;;;;;;;9.00;1.50;;;17.20;23.10;;;;;;5114256;28;20126;-67
2023/08/17 07:12:24;;;;;;;3.67;1.48;;;17.20;6.10;;;;;;5113130;28;20027;-67
2023/08/17 07:14:49;;;;;;;5.05;1.38;;;17.20;8.50;;;;;;5114131;28;20407;-66
2023/08/17 07:17:15;;;;;;;5.35;1.42;;;17.30;2.40;;;;;;5112873;28;20053;-65
2023/08/17 07:19:41;;;;;;;4.13;1.40;;;17.30;2.20;;;;;;5113852;28;20046;-66
2023/08/17 07:22:07;;;;;;;6.18;1.42;;;17.30;1.00;;;;;;5114127;28;20050;-69
2023/08/17 07:24:32;;;;;;;5.63;1.38;;;17.30;1.00;;;;;;5114069;28;20032;-71
2023/08/17 07:26:58;;;;;;;3.33;1.13;;;17.30;1.00;;;;;;5112451;28;20486;-69
2023/08/17 07:29:23;;;;;;;4.70;1.20;;;17.40;1.00;;;;;;5113589;28;20039;-66
2023/08/17 07:31:49;;;;;;;4.75;1.40;;;17.30;1.00;;;;;;5113981;28;20143;-65
2023/08/17 07:34:15;;;;;;;2.80;1.25;;;17.10;1.00;;;;;;5113904;28;20036;-66
2023/08/17 07:36:40;;;;;;;6.22;1.52;;;17.30;1.00;;;;;;5113663;28;20046;-68
2023/08/17 07:39:06;;;;;;;4.05;1.15;;;17.40;1.00;;;;;;5113829;28;20039;-65
2023/08/17 07:41:32;;;;;;;4.63;1.23;;;17.40;1.00;;;;;;5112392;28;20069;-66
2023/08/17 07:43:58;;;;;;;2.75;1.10;;;17.30;1.00;;;;;;5113806;28;20044;-66
2023/08/17 07:46:24;;;;;;;3.65;1.30;;;17.50;1.00;;;;;;5113405;28;20082;-69
2023/08/17 07:48:49;;;;;;;5.82;1.40;;;17.40;1.00;;;;;;5113582;28;20032;-66
2023/08/17 07:51:15;;;;;;;3.67;1.15;;;17.80;1.00;;;;;;5113660;28;20063;-66
2023/08/17 07:53:41;;;;;;;2.75;1.15;;;17.50;1.00;;;;;;5113229;28;20463;-68
2023/08/17 07:56:06;;;;;;;2.42;0.88;;;17.60;1.00;;;;;;5113307;28;20036;-68
2023/08/17 07:58:32;;;;;;;4.05;1.10;;;17.70;1.00;;;;;;5111975;28;20043;-68
2023/08/17 08:00:58;;;;;;;2.60;0.93;;;;;;;;;;5112218;28;20043;-68
2023/08/17 08:03:23;;;;;;;4.85;0.80;;;18.20;1.00;;;;;;5113498;28;20043;-68
2023/08/17 08:05:49;;;;;;;2.35;1.20;;;18.50;1.00;;;;;;5111823;28;20388;-68
2023/08/17 08:08:17;;;;;;;3.50;1.10;;;;;;;;;;5111763;28;20062;-68
2023/08/17 08:10:43;;;;;;;3.17;1.27;;;;;;;;;;5113314;28;20039;-68
2023/08/17 08:13:09;;;;;;;3.40;0.80;;;;;;;;;;5113437;28;20517;-66
2023/08/17 08:15:35;;;;;;;8.68;1.08;;;;;;;;;;5113309;28;20035;-66
2023/08/17 08:18:01;;;;;;;4.35;0.93;;;;;;;;;;5113300;28;20043;-65
2023/08/17 08:20:27;;;;;;;2.15;1.00;;;;;;;;;;5113417;28;20484;-65
2023/08/17 08:22:53;;;;;;;2.55;0.95;;;;;;;;;;5112985;28;20079;-65
2023/08/17 08:25:19;;;;;;;2.97;1.02;;;;;;;;;;5113336;28;20086;-66
2023/08/17 08:27:45;;;;;;;2.85;1.00;;;;;;;;;;5111622;28;20047;-66
2023/08/17 08:30:11;;;;;;;4.93;1.35;;;;;;;;;;5111888;28;20057;-66
2023/08/17 08:32:38;;;;;;;5.15;1.08;;;;;;;;;;5113317;28;20446;-65
2023/08/17 08:35:04;;;;;;;2.60;0.80;;;;;;;;;;5111544;28;20047;-65
2023/08/17 08:37:30;;;;;;;2.88;0.98;;;;;;;;;;5111860;28;20414;-65
2023/08/17 08:39:56;;;;;;;3.25;1.02;;;;;;;;;;5111861;28;20053;-65
2023/08/17 08:42:24;;;;;;;1.38;0.80;;;;;;;;;;5113169;28;20043;-65
2023/08/17 08:44:50;;;;;;;3.67;1.00;;;;;;;;;;5113166;28;20055;-65
2023/08/17 08:47:17;;;;;;;2.15;1.05;;;;;;;;;;5111851;28;20096;-65
2023/08/17 08:49:48;;;;;;;4.57;1.13;;;;;;;;;;5112730;28;20043;-65
2023/08/17 08:52:17;;;;;;;2.00;0.90;;;;;;;;;;5113187;28;20035;-68
2023/08/17 08:54:43;;;;;;;2.45;1.05;;;;;;;;;;5111528;28;20096;-68
2023/08/17 08:57:13;;;;;;;2.92;0.80;;;;;;;;;;5112749;28;20127;-68
2023/08/17 08:59:44;;;;;;;1.90;0.82;;;;;;;;;;5113097;28;20050;-68
2023/08/17 09:02:12;;;;;;;3.45;1.05;;;;;;;;;;5112601;28;20047;-73
2023/08/17 09:04:38;;;;;;;1.63;0.88;;;;;;;;;;5111668;28;20036;-69
2023/08/17 09:07:04;;;;;;;4.88;1.40;;;;;;;;;;5094059;28;20134;-66
2023/08/17 09:09:30;;;;;;;1.48;0.80;;;;;;;;;;5116420;28;20040;-66
2023/08/17 09:11:57;;;;;;;7.10;1.17;;;;;;;;;;5116641;28;20506;-67
2023/08/17 09:14:23;;;;;;;3.90;1.15;;;;;;;;;;5116832;28;20087;-67
2023/08/17 09:16:49;;;;;;;1.25;0.85;;;;;;;;;;5116173;28;20161;-68
2023/08/17 09:19:15;;;;;;;4.65;1.08;;;;;;;;;;5116440;28;20043;-70
2023/08/17 09:21:41;;;;;;;2.50;0.80;;;;;;;;;;5115097;28;20043;-68
2023/08/17 09:24:07;;;;;;;3.45;1.00;;;;;;;;;;5116402;28;20040;-69
2023/08/17 09:26:33;;;;;;;1.33;0.68;;;;;;;;;;5116325;28;20044;-69
2023/08/17 09:29:00;;;;;;;2.60;0.90;;;;;;;;;;5116237;28;20402;-69
2023/08/17 09:31:26;;;;;;;3.05;0.80;;;;;;;;;;5097690;28;20042;-65
2023/08/17 09:33:52;;;;;;;1.83;0.90;;;;;;;;;;5116158;28;20047;-66
2023/08/17 09:36:22;;;;;;;2.92;0.88;;;;;;;;;;5116181;28;20035;-65
2023/08/17 09:38:52;;;;;;;5.70;1.10;;;;;;;;;;5116220;28;20065;-66
2023/08/17 09:41:19;;;;;;;2.85;1.10;;;;;;;;;;5115795;28;20079;-66
2023/08/17 09:43:45;;;;;;;4.05;0.88;;;;;;;;;;5115680;28;20035;-65
2023/08/17 09:46:11;;;;;;;2.05;0.80;;;;;;;;;;5115706;28;20070;-66
2023/08/17 09:48:37;;;;;;;3.60;1.27;;;;;;;;;;5115728;28;20047;-66
2023/08/17 09:51:05;;;;;;;4.30;1.00;;;;;;;;;;5114250;28;20069;-70
2023/08/17 09:53:35;;;;;;;2.92;0.90;;;;;;;;;;5114165;28;20056;-70
2023/08/17 09:56:02;;;;;;;2.70;1.02;;;;;;;;;;5097281;28;20075;-69
2023/08/17 09:58:28;;;;;;;2.35;0.85;;;;;;;;;;5115427;28;20501;-69
2023/08/17 10:00:54;;;;;;;3.30;0.93;;;;;;;;;;5115763;28;20036;-68
2023/08/17 10:03:20;;;;;;;2.35;0.93;;;;;;;;;;5114009;28;20042;-67
2023/08/17 10:05:48;;;;;;;2.75;1.05;;;;;;;;;;5115405;28;20064;-67
2023/08/17 10:08:19;;;;;;;6.05;1.45;;;;;;;;;;5115400;28;20047;-68
2023/08/17 10:10:45;;;;;;;1.85;1.00;;;19.80;99.90;;;;;;5113783;28;20122;-67
2023/08/17 10:13:42;;;;;;;3.47;0.95;;;19.70;99.90;;;;;;5115285;28;20034;-66
2023/08/17 10:16:28;;;;;;;2.15;1.20;;;19.70;30.60;;;;;;5115312;28;20042;-73
2023/08/17 10:19:00;;;;;;;3.55;1.48;;;19.60;1.00;;;;;;5113906;28;20039;-67
2023/08/17 10:21:30;;;;;;;3.60;1.08;;;19.60;99.90;;;;;;5114965;28;20050;-68
2023/08/17 10:23:57;;;;;;;2.53;1.23;;;19.60;99.90;;;;;;5114000;28;20047;-75
2023/08/17 10:26:23;;;;;;;2.70;1.08;;;19.70;99.90;;;;;;5113524;28;20047;-74
2023/08/17 10:28:50;;;;;;;8.05;1.45;;;19.50;95.20;;;;;;5113418;28;20048;-66
2023/08/17 10:31:16;;;;;;;4.55;0.93;;;19.60;99.90;;;;;;5115065;28;20035;-67
2023/08/17 10:33:44;;;;;;;3.88;1.05;;;19.50;99.90;;;;;;5114987;28;20031;-66
2023/08/17 10:36:12;;;;;;;4.38;1.58;;;19.60;59.50;;;;;;5113682;28;20043;-66
2023/08/17 10:38:37;;;;;;;2.55;1.30;;;19.60;99.90;;;;;;5114854;28;20040;-65
2023/08/17 10:41:11;;;;;;;3.42;1.45;;;19.80;99.90;;;;;;5114905;28;20040;-68
2023/08/17 10:43:59;;;;;;;2.83;1.48;;;19.50;27.40;;;;;;5114861;28;20069;-68
2023/08/17 10:46:36;;;;;;;3.47;1.33;;;19.60;99.90;;;;;;5114696;28;20050;-68
2023/08/17 10:49:06;;;;;;;3.95;1.45;;;19.60;99.90;;;;;;5114570;28;20486;-68
2023/08/17 10:51:32;;;;;;;5.13;1.87;;;19.50;99.90;;;;;;5113138;28;20050;-66
2023/08/17 10:54:01;;;;;;;7.47;1.40;;;19.50;1.00;;;;;;5114545;28;20043;-65
2023/08/17 10:56:28;;;;;;;2.67;1.10;;;19.50;99.90;;;;;;5114634;28;20032;-66
2023/08/17 10:58:54;;;;;;;3.92;1.60;;;19.60;1.00;;;;;;5114144;28;20035;-66
2023/08/17 11:01:52;;;;;;;5.05;1.45;;;19.50;1.00;;;;;;5114544;28;20043;-65
2023/08/17 11:04:18;;;;;;;2.72;1.50;;;19.60;99.90;;;;;;5068527;28;20092;-67
2023/08/17 11:06:44;;;;;;;8.82;2.03;;;19.50;99.90;;;;;;5112750;28;20130;-67
2023/08/17 11:09:11;;;;;;;3.95;1.70;;;19.40;1.00;;;;;;5112810;28;20043;-66
2023/08/17 11:11:37;;;;;;;2.97;1.70;;;19.50;8.20;;;;;;5112873;28;20085;-67
2023/08/17 11:14:03;;;;;;;3.10;1.60;;;20.00;99.90;;;;;;5112911;28;20067;-68
2023/08/17 11:16:28;;;;;;;4.07;1.67;;;19.70;99.90;;;;;;5114218;28;20097;-68
2023/08/17 11:18:57;;;;;;;4.03;1.65;;;19.70;99.90;;;;;;5112391;28;20044;-71
2023/08/17 11:21:23;;;;;;;4.28;1.85;;;19.70;99.90;;;;;;5112420;28;20046;-64
2023/08/17 11:23:49;;;;;;;4.38;1.70;;;19.80;99.90;;;;;;5113831;28;20043;-64
2023/08/17 11:26:18;;;;;;;4.25;1.73;;;20.00;20.70;;;;;;5113660;28;20096;-64
2023/08/17 11:28:44;;;;;;;3.37;1.57;;;19.80;99.90;;;;;;5113610;28;20036;-64
2023/08/17 11:31:11;;;;;;;5.80;1.70;;;20.10;99.90;;;;;;5113448;28;20084;-64
2023/08/17 11:33:38;;;;;;;4.18;2.25;;;19.80;99.90;;;;;;5095253;28;20043;-64
2023/08/17 11:36:06;;;;;;;4.85;1.65;;;19.80;99.90;;;;;;5113815;28;20101;-64
2023/08/17 11:38:34;;;;;;;5.50;2.08;;;19.90;99.90;;;;;;5113824;28;20403;-64
2023/08/17 11:41:01;;;;;;;3.15;1.88;;;19.90;99.90;;;;;;5113474;28;20075;-64
2023/08/17 11:43:32;;;;;;;3.53;1.80;;;20.10;99.90;;;;;;5113696;28;20081;-65
2023/08/17 11:46:00;;;;;;;3.03;1.80;;;19.90;99.90;;;;;;5113725;28;20431;-64
2023/08/17 11:48:26;;;;;;;3.30;1.98;;;20.00;1.00;;;;;;5113290;28;20040;-64
2023/08/17 11:50:52;;;;;;;4.40;2.40;;;20.00;99.80;;;;;;5112117;28;20051;-64
2023/08/17 11:53:18;;;;;;;3.25;1.80;;;20.10;1.00;;;;;;5111908;28;20079;-64
2023/08/17 11:55:44;;;;;;;3.72;1.90;;;20.10;99.90;;;;;;5113588;28;20078;-64
2023/08/17 11:58:10;;;;;;;4.65;2.17;;;20.20;99.90;;;;;;5113503;28;20100;-64
2023/08/17 12:00:39;;;;;;;3.45;1.77;;;20.30;67.00;;;;;;5113506;28;20471;-67
2023/08/17 12:03:05;;;;;;;3.20;2.17;;;20.20;99.90;;;;;;5111801;28;20043;-66
2023/08/17 12:05:32;;;;;;;7.18;2.17;;;20.40;99.90;;;;;;5113178;28;20054;-66
2023/08/17 12:07:59;;;;;;;4.22;2.20;;;20.50;99.90;;;;;;5113306;28;20050;-66
2023/08/17 12:10:28;;;;;;;4.82;1.83;;;20.60;99.90;;;;;;5113399;28;20039;-66
2023/08/17 12:12:53;;;;;;;3.45;1.83;;;20.80;99.90;;;;;;5113427;28;20063;-66
2023/08/17 12:15:19;;;;;;;4.10;1.98;;;20.90;1.00;;;;;;5113271;28;20078;-66
2023/08/17 12:17:49;;;;;;;3.03;1.65;;;20.90;99.90;;;;;;5113279;28;20467;-66
2023/08/17 12:20:17;;;;;;;3.75;1.92;;;21.00;99.90;;;;;;5113098;28;20111;-65
2023/08/17 12:22:43;;;;;;;4.25;1.80;;;21.00;99.90;;;;;;5113365;28;20479;-66
2023/08/17 12:25:09;;;;;;;3.80;1.67;;;20.90;96.00;;;;;;5113201;28;20042;-66
2023/08/17 12:27:35;;;;;;;4.35;1.60;;;21.10;99.90;;;;;;5113234;28;20467;-66
2023/08/17 12:30:00;;;;;;;4.68;1.75;;;21.00;99.90;;;;;;5113151;28;20101;-66
2023/08/17 12:32:26;;;;;;;4.00;1.75;;;20.90;74.20;;;;;;5113195;28;20089;-67
2023/08/17 12:34:52;;;;;;;3.38;2.05;;;20.90;99.90;;;;;;5113261;28;20052;-66
2023/08/17 12:37:21;;;;;;;4.07;1.88;;;20.90;1.00;;;;;;5113239;28;20472;-66
2023/08/17 12:39:48;;;;;;;4.85;2.10;;;20.80;99.90;;;;;;5112917;28;20055;-66
2023/08/17 12:42:14;;;;;;;4.05;2.30;;;20.70;99.90;;;;;;5113195;28;20177;-66
2023/08/17 12:44:43;;;;;;;5.38;2.15;;;21.00;99.90;;;;;;5117140;28;20376;-66
2023/08/17 12:47:09;;;;;;;3.20;1.80;;;20.50;99.90;;;;;;5117064;28;20050;-66
2023/08/17 12:49:36;;;;;;;2.90;1.60;;;20.50;15.90;;;;;;5116982;28;20067;-66
2023/08/17 12:52:01;;;;;;;3.75;1.70;;;20.50;99.90;;;;;;5115446;28;20063;-66
2023/08/17 12:54:27;;;;;;;4.57;1.67;;;20.50;98.30;;;;;;5116790;28;20044;-66
2023/08/17 12:56:52;;;;;;;4.57;2.22;;;20.40;99.90;;;;;;5116973;28;20043;-66
2023/08/17 12:59:18;;;;;;;3.25;1.77;;;20.60;99.90;;;;;;5116582;28;20403;-66
2023/08/17 13:01:44;;;;;;;4.03;1.98;;;20.40;99.90;;;;;;5116880;28;20084;-66